Time;durP1;ratioP1;P1;durP2;ratioP2;P2;SDS_P1;SDS_P2;PMS_P1;PMS_P2;Temp;Humidity;BMP_temperature;BMP_pressure;BME280_temperature;BME280_humidity;BME280_pressure;Samples;Min_cycle;Max_cycle;Signal;HPM_P1;HPM_P2
2024/01/04 00:00:03;;;;;;;7.85;1.40;;;;;;;;;;5091994;28;20595;-71
2024/01/04 00:02:34;;;;;;;4.65;1.30;;;;;;;;;;5090579;28;20190;-71
2024/01/04 00:05:04;;;;;;;1.42;1.30;;;;;;;;;;5091114;28;20665;-71
2024/01/04 00:07:32;;;;;;;8.65;1.40;;;;;;;;;;5075165;28;20203;-72
2024/01/04 00:10:00;;;;;;;3.00;1.23;;;;;;;;;;5091613;28;20196;-71
2024/01/04 00:12:28;;;;;;;6.30;1.55;;;;;;;;;;5092187;28;20203;-72
2024/01/04 00:14:59;;;;;;;2.10;1.33;;;;;;;;;;5092382;28;20210;-71
2024/01/04 00:17:27;;;;;;;5.95;1.63;;;;;;;;;;5091432;28;20202;-72
2024/01/04 00:19:55;;;;;;;4.68;1.10;;;;;;;;;;5091714;28;20215;-71
2024/01/04 00:22:25;;;;;;;4.80;1.10;;;;;;;;;;5092266;28;20217;-71
2024/01/04 00:24:53;;;;;;;9.35;1.73;;;;;;;;;;5073997;28;20211;-71
2024/01/04 00:27:22;;;;;;;4.07;1.40;;;;;;;;;;5092124;28;20207;-72
2024/01/04 00:29:50;;;;;;;4.82;1.25;;;;;;;;;;5091552;28;20588;-72
2024/01/04 00:32:18;;;;;;;1.25;1.13;;;;;;;;;;5091285;28;20195;-73
2024/01/04 00:34:46;;;;;;;5.70;1.65;;;;;;;;;;5091831;28;20191;-72
2024/01/04 00:37:14;;;;;;;5.40;1.35;;;;;;;;;;5073099;28;20673;-72
2024/01/04 00:39:44;;;;;;;4.20;1.55;;;;;;;;;;5091569;28;20588;-72
2024/01/04 00:42:12;;;;;;;7.55;1.23;;;;;;;;;;5091161;28;20231;-72
2024/01/04 00:44:40;;;;;;;6.63;1.88;;;;;;;;;;5091394;28;20223;-72
2024/01/04 00:47:09;;;;;;;4.05;2.10;;;;;;;;;;5060475;28;20252;-72
2024/01/04 00:49:37;;;;;;;2.08;1.05;;;;;;;;;;5084970;28;20532;-71
2024/01/04 00:52:05;;;;;;;2.97;1.45;;;;;;;;;;5072574;28;20196;-72
2024/01/04 00:54:34;;;;;;;3.28;1.83;;;;;;;;;;5086914;28;20410;-72
2024/01/04 00:57:04;;;;;;;6.95;1.83;;;;;;;;;;5072992;28;20206;-72
2024/01/04 00:59:32;;;;;;;5.57;1.05;;;;;;;;;;5091599;28;20219;-71
2024/01/04 01:02:00;;;;;;;2.05;1.00;;;;;;;;;;5069087;28;20222;-72
2024/01/04 01:04:28;;;;;;;3.55;1.23;;;;;;;;;;5075253;28;20240;-72
2024/01/04 01:06:57;;;;;;;2.63;1.00;;;;;;;;;;5090156;28;20202;-71
2024/01/04 01:09:25;;;;;;;7.13;1.67;;;;;;;;;;5090965;28;20646;-72
2024/01/04 01:11:53;;;;;;;2.20;1.00;;;;;;;;;;5072815;28;20206;-72
2024/01/04 01:14:23;;;;;;;2.17;1.25;;;;;;;;;;5072971;28;20214;-72
2024/01/04 01:16:51;;;;;;;4.60;0.85;;;;;;;;;;5072945;28;20234;-72
2024/01/04 01:19:19;;;;;;;6.55;2.10;;;;;;;;;;5090939;28;20227;-71
2024/01/04 01:21:48;;;;;;;2.95;1.02;;;;;;;;;;5090880;28;20207;-72
2024/01/04 01:24:16;;;;;;;3.85;1.08;;;;;;;;;;5090818;28;20206;-72
2024/01/04 01:26:44;;;;;;;3.20;0.90;;;;;;;;;;5090876;28;20203;-71
2024/01/04 01:29:12;;;;;;;1.92;0.85;;;;;;;;;;5090726;28;20263;-71
2024/01/04 01:31:42;;;;;;;4.03;1.10;;;;;;;;;;5090188;28;20199;-68
2024/01/04 01:34:11;;;;;;;5.57;1.10;;;;;;;;;;5072859;28;20199;-67
2024/01/04 01:36:41;;;;;;;4.00;0.80;;;;;;;;;;5090877;28;20218;-72
2024/01/04 01:39:09;;;;;;;4.13;1.30;;;;;;;;;;5091157;28;20188;-71
2024/01/04 01:41:38;;;;;;;2.67;1.00;;;;;;;;;;5090847;28;20235;-72
2024/01/04 01:44:06;;;;;;;1.00;0.90;;;;;;;;;;5090742;28;20310;-72
2024/01/04 01:46:34;;;;;;;3.50;0.90;;;;;;;;;;5083826;28;20216;-71
2024/01/04 01:49:04;;;;;;;1.00;0.90;;;;;;;;;;5055401;28;20214;-72
2024/01/04 01:51:32;;;;;;;2.30;0.93;;;;;;;;;;5074317;28;20674;-71
2024/01/04 01:54:01;;;;;;;4.80;1.33;;;;;;;;;;5076585;28;20601;-72
2024/01/04 01:56:29;;;;;;;3.90;1.10;;;;;;;;;;5095094;28;20209;-71
2024/01/04 01:58:59;;;;;;;2.42;1.00;;;;;;;;;;5094257;28;20203;-71
2024/01/04 02:01:27;;;;;;;1.52;0.95;;;;;;;;;;5074950;28;20215;-67
2024/01/04 02:03:55;;;;;;;4.38;1.25;;;;;;;;;;5093222;28;20199;-67
2024/01/04 02:06:25;;;;;;;2.10;1.40;;;;;;;;;;5093769;28;20260;-68
2024/01/04 02:08:53;;;;;;;1.25;0.95;;;;;;;;;;5093999;28;20203;-67
2024/01/04 02:11:22;;;;;;;3.65;1.15;;;;;;;;;;5094515;28;20191;-67
2024/01/04 02:13:51;;;;;;;2.38;1.20;;;;;;;;;;5093563;28;20199;-67
2024/01/04 02:16:19;;;;;;;3.55;1.20;;;;;;;;;;5076711;28;20199;-67
2024/01/04 02:18:47;;;;;;;2.97;1.10;;;;;;;;;;5076155;28;20206;-67
2024/01/04 02:21:21;;;;;;;10.18;1.77;;;;;;;;;;5060422;28;20209;-67
2024/01/04 02:23:53;;;;;;;2.28;0.73;;;;;;;;;;5092893;28;20217;-67
2024/01/04 02:26:21;;;;;;;3.78;1.10;;;;;;;;;;5094273;28;20195;-67
2024/01/04 02:28:49;;;;;;;3.30;1.02;;;;;;;;;;5075531;28;20629;-66
2024/01/04 02:31:17;;;;;;;1.15;0.80;;;;;;;;;;5093893;28;20630;-67
2024/01/04 02:33:46;;;;;;;2.88;1.00;;;;;;;;;;5092783;28;20247;-67
2024/01/04 02:36:14;;;;;;;1.83;0.90;;;;;;;;;;5094296;28;20203;-67
2024/01/04 02:38:42;;;;;;;2.58;0.82;;;;;;;;;;5092708;28;20217;-67
2024/01/04 02:41:12;;;;;;;3.53;1.17;;;;;;;;;;5092517;28;20288;-68
2024/01/04 02:43:40;;;;;;;1.40;0.90;;;;;;;;;;5092639;28;20209;-66
2024/01/04 02:46:08;;;;;;;2.92;0.98;;;;;;;;;;5092675;28;20574;-66
2024/01/04 02:48:36;;;;;;;1.83;0.93;;;;;;;;;;5092500;28;20210;-66
2024/01/04 02:51:05;;;;;;;3.55;0.80;;;;;;;;;;5091841;28;20650;-67
2024/01/04 02:53:33;;;;;;;2.33;1.20;;;;;;;;;;5092402;28;20232;-67
2024/01/04 02:56:01;;;;;;;1.88;0.88;;;;;;;;;;5092415;28;20243;-67
2024/01/04 02:58:31;;;;;;;4.35;1.02;;;;;;;;;;5092001;28;20266;-67
2024/01/04 03:00:59;;;;;;;1.35;0.93;;;;;;;;;;5091869;28;20229;-67
2024/01/04 03:03:27;;;;;;;4.05;1.30;;;;;;;;;;5086645;28;20203;-67
2024/01/04 03:05:55;;;;;;;4.88;2.80;;;;;;;;;;5073383;28;20247;-67
2024/01/04 03:08:23;;;;;;;6.57;3.38;;;;;;;;;;5091513;28;20688;-67
2024/01/04 03:10:52;;;;;;;13.90;7.22;;;;;;;;;;5073691;28;20199;-67
2024/01/04 03:13:20;;;;;;;29.15;18.17;;;;;;;;;;5091888;28;20195;-67
2024/01/04 03:15:49;;;;;;;115.13;66.88;;;;;;;;;;5074474;28;20207;-67
2024/01/04 03:18:17;;;;;;;41.08;25.42;;;;;;;;;;5091433;28;20260;-66
2024/01/04 03:20:46;;;;;;;20.25;12.65;;;;;;;;;;5091808;28;20229;-67
2024/01/04 03:23:14;;;;;;;11.10;6.32;;;;;;;;;;5073530;28;20210;-67
2024/01/04 03:25:42;;;;;;;7.97;3.80;;;;;;;;;;5090964;28;20258;-67
2024/01/04 03:28:10;;;;;;;2.40;1.83;;;;;;;;;;5073301;28;20203;-67
2024/01/04 03:30:38;;;;;;;4.25;1.20;;;;;;;;;;5092379;28;20197;-67
2024/01/04 03:33:08;;;;;;;2.60;1.05;;;;;;;;;;5091844;28;20270;-66
2024/01/04 03:35:36;;;;;;;2.65;1.00;;;;;;;;;;5091998;28;20575;-67
2024/01/04 03:38:04;;;;;;;7.78;1.30;;;;;;;;;;5073165;28;20637;-67
2024/01/04 03:40:33;;;;;;;3.07;1.00;;;;;;;;;;5053543;28;1076875;-67
2024/01/04 03:43:02;;;;;;;2.88;1.50;;;;;;;;;;5072069;28;20260;-67
2024/01/04 03:45:30;;;;;;;6.03;1.73;;;;;;;;;;5076311;28;20217;-66
2024/01/04 03:47:58;;;;;;;6.28;1.30;;;;;;;;;;5076154;28;20205;-66
2024/01/04 03:50:28;;;;;;;3.72;1.10;;;;;;;;;;5092811;28;20237;-66
2024/01/04 03:52:56;;;;;;;6.85;2.33;;;;;;;;;;5092111;28;20207;-67
2024/01/04 03:55:24;;;;;;;3.75;1.42;;;;;;;;;;5092480;28;20259;-67
2024/01/04 03:57:53;;;;;;;4.82;1.13;;;;;;;;;;5091928;28;20213;-66
2024/01/04 04:00:21;;;;;;;2.58;1.00;;;;;;;;;;5092088;28;20209;-67
2024/01/04 04:02:51;;;;;;;2.25;1.17;;;;;;;;;;5090441;28;20618;-66
2024/01/04 04:05:19;;;;;;;6.63;1.27;;;;;;;;;;5091173;28;20743;-67
2024/01/04 04:07:49;;;;;;;3.28;1.10;;;;;;;;;;5091990;28;20203;-66
2024/01/04 04:10:17;;;;;;;5.68;1.33;;;;;;;;;;5091460;28;20203;-67
2024/01/04 04:12:45;;;;;;;4.82;1.02;;;;;;;;;;5092404;28;20205;-67
2024/01/04 04:15:14;;;;;;;3.83;1.00;;;;;;;;;;5091989;28;20210;-67
2024/01/04 04:17:42;;;;;;;2.33;1.25;;;;;;;;;;5092089;28;20221;-67
2024/01/04 04:20:10;;;;;;;2.22;1.73;;;;;;;;;;5091992;28;20210;-67
2024/01/04 04:22:39;;;;;;;7.35;1.52;;;;;;;;;;5092314;28;20215;-67
2024/01/04 04:25:08;;;;;;;4.35;1.23;;;;;;;;;;5092524;28;20207;-66
2024/01/04 04:27:37;;;;;;;4.03;1.50;;;;;;;;;;5091791;28;20560;-66
2024/01/04 04:30:06;;;;;;;4.45;1.50;;;;;;;;;;5092277;28;20201;-67
2024/01/04 04:32:35;;;;;;;4.53;1.13;;;;;;;;;;5091367;28;20213;-67
2024/01/04 04:35:03;;;;;;;4.57;1.35;;;;;;;;;;5091949;28;20557;-66
2024/01/04 04:37:31;;;;;;;2.90;1.58;;;;;;;;;;5091742;28;20211;-67
2024/01/04 04:39:59;;;;;;;6.65;1.95;;;;;;;;;;5091331;28;20567;-67
2024/01/04 04:42:29;;;;;;;5.15;1.25;;;;;;;;;;5091093;28;20215;-67
2024/01/04 04:44:59;;;;;;;5.15;1.30;;;;;;;;;;5091817;28;20685;-67
2024/01/04 04:47:27;;;;;;;5.50;1.45;;;;;;;;;;5091573;28;20605;-67
2024/01/04 04:49:55;;;;;;;2.33;1.15;;;;;;;;;;5092171;28;20255;-67
2024/01/04 04:52:24;;;;;;;3.67;0.70;;;;;;;;;;5091071;28;20550;-66
2024/01/04 04:54:52;;;;;;;3.33;1.20;;;;;;;;;;5091692;28;20196;-66
2024/01/04 04:57:20;;;;;;;5.13;1.60;;;;;;;;;;5091189;28;20574;-67
2024/01/04 04:59:49;;;;;;;3.00;1.10;;;;;;;;;;5090012;28;20207;-67
2024/01/04 05:02:18;;;;;;;3.72;1.23;;;;;;;;;;5090198;28;20706;-67
2024/01/04 05:04:46;;;;;;;1.67;0.88;;;;;;;;;;5085441;28;20570;-67
2024/01/04 05:07:14;;;;;;;4.18;1.33;;;;;;;;;;5090904;28;20199;-67
2024/01/04 05:09:43;;;;;;;7.85;1.42;;;;;;;;;;5090239;28;20680;-66
2024/01/04 05:12:11;;;;;;;4.90;1.50;;;;;;;;;;5090677;28;20195;-68
2024/01/04 05:14:39;;;;;;;5.47;1.30;;;;;;;;;;5090303;28;20191;-67
2024/01/04 05:17:08;;;;;;;3.38;0.90;;;;;;;;;;5091574;28;20211;-66
2024/01/04 05:19:37;;;;;;;3.53;1.40;;;;;;;;;;5072996;28;20199;-67
2024/01/04 05:22:05;;;;;;;3.65;1.02;;;;;;;;;;5090746;28;20586;-67
2024/01/04 05:24:34;;;;;;;8.18;1.20;;;;;;;;;;5072905;28;20213;-66
2024/01/04 05:27:02;;;;;;;6.63;2.10;;;;;;;;;;5090395;28;20205;-66
2024/01/04 05:29:30;;;;;;;11.07;4.88;;;;;;;;;;5075319;28;20199;-67
2024/01/04 05:31:58;;;;;;;14.65;7.97;;;;;;;;;;5090538;28;20206;-67
2024/01/04 05:34:29;;;;;;;13.00;9.27;;;;;;;;;;5072872;28;20211;-67
2024/01/04 05:36:57;;;;;;;3.63;1.65;;;;;;;;;;5090952;28;20201;-67
2024/01/04 05:39:26;;;;;;;2.78;1.33;;;;;;;;;;5072620;28;20199;-66
2024/01/04 05:41:54;;;;;;;8.48;1.40;;;;;;;;;;5072284;28;20231;-66
2024/01/04 05:44:22;;;;;;;4.72;1.67;;;;;;;;;;5090434;28;20219;-66
2024/01/04 05:46:51;;;;;;;8.55;1.50;;;;;;;;;;5083273;28;20211;-67
2024/01/04 05:49:19;;;;;;;4.15;1.25;;;;;;;;;;5090731;28;20202;-66
2024/01/04 05:51:49;;;;;;;3.60;0.95;;;;;;;;;;5090677;28;20199;-66
2024/01/04 05:54:17;;;;;;;5.95;1.35;;;;;;;;;;5090690;28;20234;-67
2024/01/04 05:56:45;;;;;;;4.00;1.50;;;;;;;;;;5090727;28;20199;-67
2024/01/04 05:59:13;;;;;;;2.97;1.35;;;;;;;;;;5090602;28;20587;-67
2024/01/04 06:01:41;;;;;;;5.10;1.40;;;;;;;;;;5089813;28;20238;-67
2024/01/04 06:04:10;;;;;;;8.20;1.98;;;;;;;;;;5090125;28;20549;-67
2024/01/04 06:06:38;;;;;;;5.10;1.67;;;;;;;;;;5089950;28;20673;-67
2024/01/04 06:09:08;;;;;;;5.47;1.63;;;;;;;;;;5090794;28;20284;-66
2024/01/04 06:11:38;;;;;;;6.97;1.83;;;;;;;;;;5090904;28;20195;-67
2024/01/04 06:14:06;;;;;;;5.60;2.08;;;;;;;;;;5090607;28;20210;-67
2024/01/04 06:16:34;;;;;;;8.50;1.60;;;;;;;;;;5090525;28;20203;-66
2024/01/04 06:19:02;;;;;;;2.40;1.20;;;;;;;;;;5090535;28;20203;-67
2024/01/04 06:21:30;;;;;;;6.20;1.20;;;;;;;;;;5090597;28;20222;-67
2024/01/04 06:23:59;;;;;;;8.35;1.40;;;;;;;;;;5089828;28;20643;-67
2024/01/04 06:26:28;;;;;;;3.35;1.23;;;;;;;;;;5073211;28;20401;-67
2024/01/04 06:28:56;;;;;;;3.60;1.00;;;;;;;;;;5071519;28;20195;-66
2024/01/04 06:31:25;;;;;;;4.47;1.42;;;;;;;;;;5090336;28;20213;-67
2024/01/04 06:33:53;;;;;;;4.80;1.40;;;;;;;;;;5091042;28;20199;-67
2024/01/04 06:36:21;;;;;;;2.20;1.02;;;;;;;;;;5094361;28;20196;-67
2024/01/04 06:38:50;;;;;;;2.58;1.38;;;;;;;;;;5093650;28;20208;-67
2024/01/04 06:41:19;;;;;;;3.65;1.40;;;;;;;;;;5093048;28;20227;-64
2024/01/04 06:43:49;;;;;;;4.07;1.30;;;;;;;;;;5077648;28;20222;-64
2024/01/04 06:46:17;;;;;;;5.03;1.05;;;;;;;;;;5096492;28;20203;-65
2024/01/04 06:48:45;;;;;;;4.32;1.42;;;;;;;;;;5083230;28;20210;-64
2024/01/04 06:51:14;;;;;;;1.77;0.85;;;;;;;;;;5095657;28;20210;-66
2024/01/04 06:53:42;;;;;;;4.70;0.90;;;;;;;;;;5096738;28;20199;-67
2024/01/04 06:56:12;;;;;;;4.57;1.00;;;;;;;;;;5097580;28;20203;-64
2024/01/04 06:58:40;;;;;;;5.63;1.10;;;;;;;;;;5097230;28;20275;-65
2024/01/04 07:01:10;;;;;;;3.28;1.15;;;;;;;;;;5096656;28;20279;-64
2024/01/04 07:03:38;;;;;;;3.22;1.17;;;;;;;;;;5076376;28;20678;-65
2024/01/04 07:06:07;;;;;;;4.63;1.27;;;;;;;;;;5093660;28;20203;-64
2024/01/04 07:08:35;;;;;;;2.90;1.17;;;;;;;;;;5095329;28;20713;-64
2024/01/04 07:11:05;;;;;;;3.25;1.00;;;;;;;;;;5095644;28;20204;-64
2024/01/04 07:13:34;;;;;;;4.13;1.35;;;;;;;;;;5076884;28;20660;-64
2024/01/04 07:16:05;;;;;;;4.70;1.60;;;;;;;;;;5081388;28;20185;-64
2024/01/04 07:18:34;;;;;;;5.15;1.30;;;;;;;;;;5076527;28;20195;-64
2024/01/04 07:21:02;;;;;;;2.72;1.10;;;;;;;;;;5093857;28;20209;-65
2024/01/04 07:23:31;;;;;;;2.75;1.30;;;;;;;;;;5092935;28;20769;-66
2024/01/04 07:26:00;;;;;;;3.95;1.50;;;;;;;;;;5075370;28;20199;-65
2024/01/04 07:28:29;;;;;;;4.88;1.40;;;;;;;;;;5094213;28;20199;-64
2024/01/04 07:30:57;;;;;;;3.80;1.05;;;;;;;;;;5094791;28;20199;-65
2024/01/04 07:33:26;;;;;;;7.03;1.33;;;;;;;;;;5094014;28;20199;-65
2024/01/04 07:35:56;;;;;;;5.70;1.55;;;;;;;;;;5093949;28;20207;-65
2024/01/04 07:38:24;;;;;;;11.55;2.28;;;;;;;;;;5093771;28;20252;-65
2024/01/04 07:40:52;;;;;;;6.00;1.55;;;;;;;;;;5075548;28;20222;-65
2024/01/04 07:43:20;;;;;;;4.75;1.58;;;;;;;;;;5092622;28;20218;-66
2024/01/04 07:45:48;;;;;;;9.98;1.77;;;;;;;;;;5087526;28;20225;-66
2024/01/04 07:48:17;;;;;;;6.00;1.73;;;;;;;;;;5093094;28;20210;-65
2024/01/04 07:50:45;;;;;;;7.25;2.17;;;;;;;;;;5075628;28;20203;-65
2024/01/04 07:53:15;;;;;;;10.43;2.42;;;;;;;;;;5093103;28;20205;-65
2024/01/04 07:55:43;;;;;;;9.85;2.05;;;;;;;;;;5093427;28;20223;-64
2024/01/04 07:58:11;;;;;;;10.32;2.05;;;;;;;;;;5092065;28;20855;-64
2024/01/04 08:00:40;;;;;;;9.20;2.20;;;;;;;;;;5090130;28;20195;-66
2024/01/04 08:03:08;;;;;;;7.05;2.60;;;;;;;;;;5091819;28;20244;-64
2024/01/04 08:05:36;;;;;;;6.65;2.15;;;;;;;;;;5092243;28;20252;-65
2024/01/04 08:08:05;;;;;;;8.52;2.20;;;;;;;;;;5073598;28;20192;-65
2024/01/04 08:10:34;;;;;;;6.47;1.95;;;;;;;;;;5070206;28;20195;-65
2024/01/04 08:13:02;;;;;;;5.05;1.75;;;;;;;;;;5075246;28;20200;-64
2024/01/04 08:15:33;;;;;;;10.98;2.70;;;;;;;;;;5075329;28;20195;-65
2024/01/04 08:18:02;;;;;;;11.05;2.08;;;;;;;;;;5074879;28;20196;-65
2024/01/04 08:20:30;;;;;;;7.53;2.10;;;;;;;;;;5092436;28;20221;-68
2024/01/04 08:22:59;;;;;;;7.03;2.40;;;;;;;;;;5091940;28;20215;-65
2024/01/04 08:25:27;;;;;;;4.38;2.30;;;;;;;;;;5089899;28;20222;-66
2024/01/04 08:27:57;;;;;;;10.60;2.20;;;;;;;;;;5091864;28;20203;-65
2024/01/04 08:30:25;;;;;;;6.47;2.25;;;;;;;;;;5092666;28;20199;-66
2024/01/04 08:32:54;;;;;;;5.75;2.33;;;;;;;;;;5093718;28;20203;-65
2024/01/04 08:35:22;;;;;;;9.38;2.83;;;;;;;;;;5075973;28;20218;-66
2024/01/04 08:37:50;;;;;;;8.20;1.70;;;;;;;;;;5086879;28;20199;-66
2024/01/04 08:40:18;;;;;;;5.38;2.40;;;;;;;;;;5091199;28;21009;-66
2024/01/04 08:42:46;;;;;;;11.68;2.60;;;;;;;;;;5091171;28;20199;-65
2024/01/04 08:45:16;;;;;;;6.30;1.90;;;;;;;;;;5069982;28;20219;-65
2024/01/04 08:47:44;;;;;;;9.60;2.33;;;;;;;;;;5083334;28;20203;-65
2024/01/04 08:50:12;;;;;;;10.48;2.50;;;;;;;;;;5074550;28;20548;-65
2024/01/04 08:52:41;;;;;;;6.82;2.28;;;;;;;;;;5093151;28;20201;-66
2024/01/04 08:55:10;;;;;;;10.70;2.60;;;;;;;;;;5092190;28;20209;-65
2024/01/04 08:57:38;;;;;;;8.68;2.50;;;;;;;;;;5092201;28;20195;-65
2024/01/04 09:00:07;;;;;;;4.63;2.15;;;;;;;;;;5092231;28;20658;-64
2024/01/04 09:02:37;;;;;;;3.97;1.92;;;;;;;;;;5092488;28;20209;-65
2024/01/04 09:05:06;;;;;;;5.03;2.60;;;;;;;;;;5089095;28;20691;-65
2024/01/04 09:07:34;;;;;;;13.38;2.08;;;;;;;;;;5081910;28;20203;-65
2024/01/04 09:10:02;;;;;;;5.32;1.90;;;;;;;;;;5092255;28;20195;-64
2024/01/04 09:12:30;;;;;;;7.80;2.42;;;;;;;;;;5091837;28;20219;-65
2024/01/04 09:14:59;;;;;;;10.05;2.83;;;;;;;;;;5090564;28;20548;-65
2024/01/04 09:17:27;;;;;;;8.50;1.95;;;;;;;;;;5074834;28;20589;-65
2024/01/04 09:19:57;;;;;;;11.98;2.60;;;;;;;;;;5073910;28;20207;-65
2024/01/04 09:22:25;;;;;;;10.63;3.38;;;;;;;;;;5093259;28;20203;-65
2024/01/04 09:24:54;;;;;;;8.13;2.80;;;;;;;;;;5074590;28;20219;-67
2024/01/04 09:27:23;;;;;;;10.90;3.17;;;;;;;;;;5089516;28;20622;-65
2024/01/04 09:29:52;;;;;;;7.83;2.10;;;;;;;;;;5091008;28;20617;-65
2024/01/04 09:32:20;;;;;;;10.00;3.00;;;;;;;;;;5091371;28;20994;-65
2024/01/04 09:34:49;;;;;;;8.20;2.43;;;;;;;;;;5091291;28;20612;-66
2024/01/04 09:37:19;;;;;;;10.03;2.90;;;;;;;;;;5057708;28;20588;-64
2024/01/04 09:39:47;;;;;;;8.63;2.67;;;;;;;;;;5090500;28;20613;-66
2024/01/04 09:42:16;;;;;;;10.37;2.93;;;;;;;;;;5090003;28;20449;-65
2024/01/04 09:44:45;;;;;;;8.85;2.72;;;;;;;;;;5091924;28;20657;-65
2024/01/04 09:47:15;;;;;;;6.30;2.72;;;;;;;;;;5070799;28;20218;-65
2024/01/04 09:49:44;;;;;;;7.32;3.90;;;;;;;;;;5082554;28;20226;-65
2024/01/04 09:52:13;;;;;;;8.88;3.20;;;;;;;;;;5084308;28;20659;-66
2024/01/04 09:54:44;;;;;;;13.70;3.77;;;;;;;;;;5071318;28;20212;-65
2024/01/04 09:57:12;;;;;;;9.38;3.15;;;;;;;;;;5070748;28;20602;-65
2024/01/04 09:59:41;;;;;;;12.98;3.67;;;;;;;;;;5071631;28;20203;-68
2024/01/04 10:02:12;;;;;;;7.47;3.00;;;;;;;;;;5070023;28;20542;-65
2024/01/04 10:04:43;;;;;;;6.20;3.70;;;;;;;;;;5070557;28;20626;-66
2024/01/04 10:07:18;;;;;;;8.90;3.70;;;;;;;;;;5059523;28;20560;-67
2024/01/04 10:09:48;;;;;;;7.77;3.37;;;;;;;;;;5092944;28;20190;-66
2024/01/04 10:12:16;;;;;;;4.35;2.90;;;;;;;;;;5093952;28;20623;-65
2024/01/04 10:14:45;;;;;;;8.10;3.22;;;;;;;;;;5093326;28;20214;-65
2024/01/04 10:17:13;;;;;;;16.05;2.90;;;;;;;;;;5095030;28;20209;-65
2024/01/04 10:19:41;;;;;;;4.72;2.83;;;;;;;;;;5093861;28;20672;-66
2024/01/04 10:22:10;;;;;;;11.25;2.90;;;;;;;;;;5075243;28;20597;-66
2024/01/04 10:24:38;;;;;;;4.53;3.50;;;;;;;;;;5076004;28;20207;-65
2024/01/04 10:27:09;;;;;;;7.50;3.00;;;;;;;;;;5076485;28;20542;-65
2024/01/04 10:29:38;;;;;;;6.77;3.00;;;;;;;;;;5094007;28;20652;-65
2024/01/04 10:32:08;;;;;;;4.45;2.83;;;;;;;;;;5094804;28;20613;-65
2024/01/04 10:34:36;;;;;;;9.30;4.78;;;;;;;;;;5093957;28;20188;-65
2024/01/04 10:37:09;;;;;;;5.75;3.53;;;;;;;;;;5093885;28;20573;-65
2024/01/04 10:39:37;;;;;;;3.75;2.30;;;;;;;;;;5094158;28;20195;-65
2024/01/04 10:42:07;;;;;;;3.33;2.40;;;;;;;;;;5094562;28;20239;-65
2024/01/04 10:44:36;;;;;;;6.10;2.97;;;;;;;;;;5093201;28;20219;-65
2024/01/04 10:47:05;;;;;;;5.72;2.92;;;;;;;;;;5094198;28;20196;-65
2024/01/04 10:49:34;;;;;;;12.03;3.10;;;;;;;;;;5092150;28;20209;-65
2024/01/04 10:52:04;;;;;;;9.88;2.90;;;;;;;;;;5093583;28;20609;-65
2024/01/04 10:54:33;;;;;;;4.50;3.08;;;;;;;;;;5092764;28;20180;-65
2024/01/04 10:57:02;;;;;;;7.57;3.30;;;;;;;;;;5092689;28;20207;-65
2024/01/04 10:59:31;;;;;;;7.57;4.18;;;;;;;;;;5092743;28;20560;-65
2024/01/04 11:02:00;;;;;;;7.03;5.28;;;;;;;;;;5093276;28;20199;-65
2024/01/04 11:04:30;;;;;;;5.35;3.35;;;;;;;;;;5092543;28;20567;-65
2024/01/04 11:06:59;;;;;;;6.28;3.90;;;;;;;;;;5092092;28;20199;-65
2024/01/04 11:09:27;;;;;;;4.83;3.17;;;;;;;;;;5092554;28;20825;-67
2024/01/04 11:11:58;;;;;;;6.37;3.20;;;;;;;;;;5093761;28;20613;-67
2024/01/04 11:14:27;;;;;;;7.60;4.03;;;;;;;;;;5093029;28;20562;-68
2024/01/04 11:17:02;;;;;;;6.00;4.13;;;;;;;;;;5075325;28;20629;-67
2024/01/04 11:19:38;;;;;;;12.47;3.90;;;;;;;;;;5091762;28;20616;-67
2024/01/04 11:22:17;;;;;;;4.93;4.47;;;;;;;;;;5092627;28;21006;-67
2024/01/04 11:24:51;;;;;;;5.63;4.50;;;;;;;;;;5092607;28;20686;-67
2024/01/04 11:27:20;;;;;;;6.57;3.90;;;;;;;;;;5088941;28;21234;-67
2024/01/04 11:29:49;;;;;;;10.60;4.87;;;;;;;;;;5091438;28;20639;-67
2024/01/04 11:32:18;;;;;;;5.77;4.30;;;;;;;;;;5089971;28;20625;-67
2024/01/04 11:34:48;;;;;;;6.30;5.07;;;;;;;;;;5091425;28;20655;-67
2024/01/04 11:37:18;;;;;;;5.10;4.60;;;;;;;;;;5092171;28;20597;-67
2024/01/04 11:39:57;;;;;;;6.27;5.10;;;;;;;;;;5090388;28;20686;-68
2024/01/04 11:42:37;;;;;;;5.70;5.23;;;;;;;;;;5091819;28;20616;-67
2024/01/04 11:45:06;;;;;;;8.03;6.03;;;;;;;;;;5087259;28;21013;-67
2024/01/04 11:47:38;;;;;;;10.93;5.60;;;;;;;;;;5088927;28;20622;-67
2024/01/04 11:50:17;;;;;;;9.93;6.70;;;;;;;;;;5093157;28;20662;-67
2024/01/04 11:52:46;;;;;;;5.93;5.43;;;;;;;;;;5092502;28;20587;-67
2024/01/04 11:55:24;;;;;;;6.27;5.67;;;;;;;;;;5088957;28;20609;-67
2024/01/04 11:57:52;;;;;;;5.77;4.93;;;;;;;;;;5092485;28;20667;-68
2024/01/04 12:00:21;;;;;;;7.47;5.85;;;;;;;;;;5091856;28;20624;-68
2024/01/04 12:02:50;;;;;;;6.13;4.87;;;;;;;;;;5091267;28;20672;-68
2024/01/04 12:05:19;;;;;;;6.30;4.97;;;;;;;;;;5091232;28;20632;-68
2024/01/04 12:07:48;;;;;;;9.07;5.70;;;;;;;;;;5090662;28;20618;-68
2024/01/04 12:10:16;;;;;;;11.23;5.77;;;;;;;;;;5092182;28;20694;-68
2024/01/04 12:12:44;;;;;;;5.23;4.63;;;;;;;;;;5092325;28;20939;-68
2024/01/04 12:15:13;;;;;;;6.47;5.50;;;;;;;;;;5091924;28;20995;-68
2024/01/04 12:17:41;;;;;;;10.10;6.20;;;;;;;;;;5091787;28;20636;-68
2024/01/04 12:20:10;;;;;;;12.17;7.10;;;;;;;;;;5076014;28;20628;-68
2024/01/04 12:22:40;;;;;;;10.50;9.50;;;;;;;;;;5091969;28;21221;-68
2024/01/04 12:25:09;;;;;;;6.83;5.40;;;;;;;;;;5091719;28;20672;-68
2024/01/04 12:27:38;;;;;;;7.83;4.80;;;;;;;;;;5091816;28;20617;-68
2024/01/04 12:30:08;;;;;;;8.90;5.10;;;;;;;;;;5091667;28;20963;-68
2024/01/04 12:32:36;;;;;;;5.30;4.50;;;;;;;;;;5090068;28;20616;-68
2024/01/04 12:35:05;;;;;;;10.17;4.10;;;;;;;;;;5091933;28;20602;-67
2024/01/04 12:37:33;;;;;;;9.87;4.37;;;;;;;;;;5091035;28;20621;-67
2024/01/04 12:40:11;;;;;;;7.03;3.90;;;;;;;;;;5091369;28;20627;-67
2024/01/04 12:42:40;;;;;;;6.60;4.37;;;;;;;;;;5088324;28;21113;-68
2024/01/04 12:45:09;;;;;;;4.60;3.87;;;;;;;;;;5090478;28;21053;-69
2024/01/04 12:47:38;;;;;;;11.10;5.33;;;;;;;;;;5088706;28;20616;-68
2024/01/04 12:50:09;;;;;;;7.60;4.17;;;;;;;;;;5073456;28;20617;-68
2024/01/04 12:52:38;;;;;;;8.63;4.13;;;;;;;;;;5071755;28;20609;-68
2024/01/04 12:55:07;;;;;;;10.73;5.67;;;;;;;;;;5088584;28;21183;-69
2024/01/04 12:57:36;;;;;;;8.40;4.50;;;;;;;;;;5085674;28;20662;-68
2024/01/04 13:00:05;;;;;;;11.43;6.80;;;;;;;;;;5088700;28;20621;-67
2024/01/04 13:02:34;;;;;;;11.03;9.80;;;;;;;;;;5088951;28;21056;-68
2024/01/04 13:05:03;;;;;;;11.57;7.83;;;;;;;;;;5072091;28;20660;-69
2024/01/04 13:07:31;;;;;;;14.43;9.60;;;;;;;;;;5088146;28;20636;-68
2024/01/04 13:09:59;;;;;;;7.37;6.70;;;;;;;;;;5072997;28;20618;-68
2024/01/04 13:12:29;;;;;;;8.20;7.37;;;;;;;;;;5088035;28;20629;-68
2024/01/04 13:14:59;;;;;;;7.70;7.00;;;;;;;;;;5090295;28;20630;-69
2024/01/04 13:17:30;;;;;;;7.93;7.27;;;;;;;;;;5086371;28;20637;-66
2024/01/04 13:19:59;;;;;;;9.10;7.63;;;;;;;;;;5071770;28;20635;-67
2024/01/04 13:22:27;;;;;;;7.93;6.87;;;;;;;;;;5073604;28;20620;-65
2024/01/04 13:24:56;;;;;;;12.00;7.60;;;;;;;;;;5089584;28;20591;-66
2024/01/04 13:27:24;;;;;;;10.80;6.23;;;;;;;;;;5089675;28;20674;-66
2024/01/04 13:29:53;;;;;;;6.73;6.07;;;;;;;;;;5089366;28;21204;-66
2024/01/04 13:32:22;;;;;;;6.63;5.13;;;;;;;;;;5090680;28;20629;-64
2024/01/04 13:34:50;;;;;;;9.67;5.37;;;;;;;;;;5090503;28;20615;-67
2024/01/04 13:37:19;;;;;;;6.77;4.87;;;;;;;;;;5090813;28;20617;-66
2024/01/04 13:39:47;;;;;;;9.93;5.27;;;;;;;;;;5087885;28;21193;-64
2024/01/04 13:42:18;;;;;;;18.13;5.00;;;;;;;;;;5090458;28;20641;-64
2024/01/04 13:44:46;;;;;;;10.20;5.10;;;;;;;;;;5090079;28;20661;-64
2024/01/04 13:47:15;;;;;;;8.98;4.57;;;;;;;;;;5080380;28;20658;-66
2024/01/04 13:49:45;;;;;;;11.67;4.83;;;;;;;;;;5090900;28;20668;-66
2024/01/04 13:52:13;;;;;;;10.20;4.18;;;;;;;;;;5094839;28;20603;-66
2024/01/04 13:54:42;;;;;;;11.45;4.75;;;;;;;;;;5076663;28;20236;-67
2024/01/04 13:57:10;;;;;;;8.70;4.30;;;;;;;;;;5093566;28;20206;-64
2024/01/04 13:59:40;;;;;;;10.63;4.35;;;;;;;;;;5094555;28;20625;-64
2024/01/04 14:02:08;;;;;;;8.47;3.43;;;;;;;;;;5092902;28;20256;-64
2024/01/04 14:04:37;;;;;;;9.80;3.43;;;;;;;;;;5093142;28;20623;-64
2024/01/04 14:07:08;;;;;;;7.90;3.23;;;;;;;;;;5074516;28;20745;-64
2024/01/04 14:09:36;;;;;;;15.00;3.60;;;;;;;;;;5093885;28;20593;-64
2024/01/04 14:12:05;;;;;;;6.23;3.30;;;;;;;;;;5094405;28;20617;-65
2024/01/04 14:14:33;;;;;;;8.40;2.80;;;;;;;;;;5076389;28;20999;-64
2024/01/04 14:17:02;;;;;;;4.10;2.80;;;;;;;;;;5094381;28;20613;-65
2024/01/04 14:19:30;;;;;;;6.57;3.37;;;;;;;;;;5076338;28;20610;-64
2024/01/04 14:21:58;;;;;;;12.13;6.10;;;;;;;;;;5094603;28;20613;-65
2024/01/04 14:24:28;;;;;;;29.97;13.87;;;;;;;;;;5093970;28;20613;-65
2024/01/04 14:26:56;;;;;;;11.17;5.00;;;;;;;;;;5094264;28;20711;-65
2024/01/04 14:29:25;;;;;;;9.30;6.53;;;;;;;;;;5093849;28;20609;-65
2024/01/04 14:31:53;;;;;;;19.50;11.90;;;;;;;;;;5092437;28;20721;-65
2024/01/04 14:34:21;;;;;;;4.37;2.87;;;;;;;;;;5073662;28;20211;-65
2024/01/04 14:36:49;;;;;;;9.32;2.80;;;;;;;;;;5090649;28;20625;-66
2024/01/04 14:39:21;;;;;;;10.98;2.15;;;;;;;;;;5091431;28;20207;-66
2024/01/04 14:41:51;;;;;;;6.82;1.77;;;;;;;;;;5089932;28;20718;-66
2024/01/04 14:44:20;;;;;;;14.73;3.28;;;;;;;;;;5090495;28;20231;-66
2024/01/04 14:46:49;;;;;;;8.85;2.17;;;;;;;;;;5090786;28;20226;-66
2024/01/04 14:49:17;;;;;;;10.63;2.80;;;;;;;;;;5091122;28;20203;-66